Time;durP1;ratioP1;P1;durP2;ratioP2;P2;SDS_P1;SDS_P2;PMS_P1;PMS_P2;Temp;Humidity;BMP_temperature;BMP_pressure;BME280_temperature;BME280_humidity;BME280_pressure;Samples;Min_cycle;Max_cycle;Signal;HPM_P1;HPM_P2
2022/11/16 00:02:11;;;;;;;4.75;3.20;;;11.90;99.90;;;;;;4936168;28;20078;-85
2022/11/16 00:04:36;;;;;;;4.22;3.03;;;11.80;99.90;;;;;;4932754;28;20035;-85
2022/11/16 00:07:02;;;;;;;4.03;2.50;;;11.80;99.90;;;;;;4967511;28;20446;-85
2022/11/16 00:09:30;;;;;;;4.72;2.72;;;11.80;99.90;;;;;;4967713;28;20050;-85
2022/11/16 00:11:58;;;;;;;4.32;3.20;;;11.90;99.90;;;;;;4968166;28;20034;-85
2022/11/16 00:14:25;;;;;;;5.15;2.88;;;11.80;99.90;;;;;;4950192;28;20785;-86
2022/11/16 00:16:50;;;;;;;6.93;2.85;;;11.80;99.90;;;;;;4953219;28;20038;-85
2022/11/16 00:19:16;;;;;;;3.67;2.63;;;11.80;99.90;;;;;;4945536;28;20122;-85
2022/11/16 00:21:41;;;;;;;3.30;3.00;;;11.90;99.90;;;;;;4965647;28;20465;-85
2022/11/16 00:24:08;;;;;;;6.18;3.08;;;11.80;99.90;;;;;;4935381;28;20066;-85
2022/11/16 00:26:33;;;;;;;3.72;2.83;;;11.80;99.90;;;;;;4966285;28;20038;-85
2022/11/16 00:28:59;;;;;;;5.90;3.40;;;11.80;99.90;;;;;;4949295;28;20394;-85
2022/11/16 00:31:25;;;;;;;4.95;3.45;;;11.80;99.90;;;;;;4935585;28;20129;-85
2022/11/16 00:33:50;;;;;;;4.70;3.40;;;11.70;99.90;;;;;;4946516;28;20097;-85
2022/11/16 00:36:16;;;;;;;4.53;2.97;;;11.80;99.90;;;;;;4950567;28;20031;-85
2022/11/16 00:38:41;;;;;;;3.70;2.55;;;11.70;99.90;;;;;;4933858;28;20455;-85
2022/11/16 00:41:07;;;;;;;4.03;3.50;;;11.70;99.90;;;;;;4954057;28;20034;-85
2022/11/16 00:43:33;;;;;;;3.88;2.65;;;11.70;99.90;;;;;;4950559;28;20590;-85
2022/11/16 00:45:58;;;;;;;3.30;2.80;;;11.70;99.90;;;;;;4976230;28;20031;-85
2022/11/16 00:48:24;;;;;;;4.30;2.63;;;11.80;99.90;;;;;;4946152;28;20392;-85
2022/11/16 00:50:49;;;;;;;3.28;2.85;;;11.70;99.90;;;;;;4977816;28;20451;-85
2022/11/16 00:53:16;;;;;;;3.40;2.80;;;11.80;99.90;;;;;;4934855;28;20114;-85
2022/11/16 00:55:42;;;;;;;3.53;2.15;;;11.70;99.90;;;;;;4947487;28;20201;-85
2022/11/16 00:58:08;;;;;;;4.35;2.42;;;11.70;99.90;;;;;;4964768;28;20482;-85
2022/11/16 01:00:33;;;;;;;5.78;2.55;;;11.70;99.90;;;;;;4948604;28;20030;-85
2022/11/16 01:02:59;;;;;;;5.45;2.53;;;11.70;99.90;;;;;;4946747;28;20035;-85
2022/11/16 01:05:24;;;;;;;4.57;2.90;;;11.70;99.90;;;;;;4931175;28;20041;-85
2022/11/16 01:07:50;;;;;;;4.32;2.80;;;11.80;99.90;;;;;;4978240;28;20049;-85
2022/11/16 01:10:18;;;;;;;6.70;3.10;;;11.60;99.90;;;;;;4935490;28;20031;-85
2022/11/16 01:12:44;;;;;;;3.60;2.35;;;11.70;99.90;;;;;;4965520;28;20034;-85
2022/11/16 01:15:10;;;;;;;3.33;2.97;;;11.70;99.90;;;;;;4932948;28;20494;-85
2022/11/16 01:17:36;;;;;;;4.68;2.90;;;11.70;99.90;;;;;;4977712;28;20041;-85
2022/11/16 01:20:04;;;;;;;3.97;2.70;;;11.70;99.90;;;;;;4949578;28;20030;-84
2022/11/16 01:22:30;;;;;;;3.45;2.67;;;11.70;99.90;;;;;;4963337;28;20050;-85
2022/11/16 01:24:56;;;;;;;5.35;3.42;;;11.70;99.90;;;;;;4934205;28;20065;-85
2022/11/16 01:27:21;;;;;;;5.05;3.72;;;11.70;99.90;;;;;;4975166;28;20086;-85
2022/11/16 01:29:47;;;;;;;3.20;2.60;;;11.70;99.90;;;;;;4950826;28;20043;-85
2022/11/16 01:32:13;;;;;;;2.25;2.05;;;11.70;99.90;;;;;;4950201;28;20030;-85
2022/11/16 01:34:38;;;;;;;2.83;1.90;;;11.70;99.90;;;;;;4944416;28;20061;-84
2022/11/16 01:37:04;;;;;;;3.45;3.05;;;11.70;99.90;;;;;;4934536;28;20030;-85
2022/11/16 01:39:29;;;;;;;3.08;2.78;;;11.60;99.90;;;;;;4968077;28;20042;-85
2022/11/16 01:41:55;;;;;;;2.67;2.40;;;11.60;99.90;;;;;;4948257;28;20313;-84
2022/11/16 01:44:32;;;;;;;4.03;2.85;;;11.70;99.90;;;;;;4950894;28;20027;-85
2022/11/16 01:46:58;;;;;;;3.72;2.58;;;11.60;99.90;;;;;;4964116;28;20605;-85
2022/11/16 01:49:26;;;;;;;4.07;3.05;;;11.60;99.90;;;;;;4949781;28;20101;-85
2022/11/16 01:51:56;;;;;;;3.13;2.45;;;11.60;99.90;;;;;;4978299;28;20043;-85
2022/11/16 01:54:21;;;;;;;5.38;3.13;;;11.60;99.90;;;;;;4948139;28;20035;-85
2022/11/16 01:56:48;;;;;;;3.13;2.22;;;11.60;99.90;;;;;;4951545;28;20026;-85
2022/11/16 01:59:14;;;;;;;4.40;3.45;;;11.70;99.90;;;;;;4937483;28;20035;-85
2022/11/16 02:01:39;;;;;;;2.70;2.50;;;11.60;99.90;;;;;;4948400;28;20537;-84
2022/11/16 02:04:11;;;;;;;4.43;3.33;;;11.60;99.90;;;;;;4948223;28;21584;-85
2022/11/16 02:06:49;;;;;;;5.13;2.97;;;11.60;99.90;;;;;;4965777;28;20046;-85
2022/11/16 02:12:20;;;;;;;4.00;2.70;;;11.60;99.90;;;;;;4951422;28;20042;-84
2022/11/16 02:14:53;;;;;;;3.05;2.70;;;11.60;99.90;;;;;;4963549;28;20039;-85
2022/11/16 02:17:49;;;;;;;3.95;2.80;;;11.50;99.90;;;;;;4951082;28;20502;-85
2022/11/16 02:20:32;;;;;;;3.40;3.10;;;11.60;99.90;;;;;;4947332;28;20031;-85
2022/11/16 02:23:03;;;;;;;7.68;2.90;;;11.60;99.90;;;;;;4957010;28;20130;-86
2022/11/16 02:25:44;;;;;;;7.25;3.00;;;11.60;99.90;;;;;;4949742;28;20032;-85
2022/11/16 02:28:25;;;;;;;3.50;2.25;;;11.50;99.90;;;;;;4951350;28;20061;-86
2022/11/16 02:30:51;;;;;;;3.67;2.95;;;11.50;99.90;;;;;;4953037;28;20109;-86
2022/11/16 02:33:18;;;;;;;3.38;2.70;;;11.60;99.90;;;;;;4950947;28;20482;-86
2022/11/16 02:35:49;;;;;;;3.38;2.28;;;11.60;99.90;;;;;;4979504;28;20491;-86
2022/11/16 02:38:28;;;;;;;3.05;2.08;;;11.60;99.90;;;;;;4950960;28;20460;-86
2022/11/16 02:40:57;;;;;;;2.22;1.92;;;11.60;99.90;;;;;;4951940;28;20093;-86
2022/11/16 02:43:31;;;;;;;5.00;1.80;;;11.60;99.90;;;;;;4981934;28;20502;-86
2022/11/16 02:45:58;;;;;;;1.90;1.75;;;11.50;99.90;;;;;;4967632;28;20400;-86
2022/11/16 02:48:26;;;;;;;3.25;2.10;;;11.60;99.90;;;;;;4930410;28;20027;-86
2022/11/16 02:50:51;;;;;;;4.60;2.83;;;11.50;99.90;;;;;;4952269;28;20035;-86
2022/11/16 02:53:19;;;;;;;1.88;1.52;;;11.50;99.90;;;;;;4934578;28;20481;-86
2022/11/16 02:55:44;;;;;;;1.98;1.35;;;11.50;99.90;;;;;;4964277;28;20098;-86
2022/11/16 02:58:10;;;;;;;1.35;1.20;;;11.50;99.90;;;;;;4939336;28;20238;-86
2022/11/16 03:00:48;;;;;;;1.75;1.48;;;11.40;99.90;;;;;;4965230;28;20122;-85
2022/11/16 03:03:17;;;;;;;1.27;1.13;;;11.50;99.90;;;;;;4966815;28;20056;-86
2022/11/16 03:05:49;;;;;;;2.08;1.30;;;11.50;99.90;;;;;;4952353;28;20031;-86
2022/11/16 03:08:24;;;;;;;1.98;1.30;;;11.40;99.90;;;;;;4921427;28;20031;-86
2022/11/16 03:13:36;;;;;;;2.10;1.50;;;11.50;99.90;;;;;;4949608;28;20054;-86
2022/11/16 03:16:28;;;;;;;1.77;1.45;;;11.50;99.90;;;;;;4981928;28;20027;-86
2022/11/16 03:18:54;;;;;;;1.67;1.20;;;11.50;99.90;;;;;;4926596;28;20508;-86
2022/11/16 03:21:45;;;;;;;1.67;1.10;;;11.50;99.90;;;;;;4981831;28;20027;-86
2022/11/16 03:24:10;;;;;;;2.67;2.45;;;11.50;99.90;;;;;;4929657;28;20037;-86
2022/11/16 03:26:43;;;;;;;1.50;1.33;;;11.50;99.90;;;;;;4965313;28;20815;-87
2022/11/16 03:29:35;;;;;;;2.95;1.38;;;11.40;99.90;;;;;;4962224;28;20453;-86
2022/11/16 03:32:24;;;;;;;1.60;1.50;;;11.50;99.90;;;;;;4935456;28;20875;-86
2022/11/16 03:35:09;;;;;;;3.05;1.80;;;11.50;99.90;;;;;;4949933;28;20035;-86
2022/11/16 03:37:35;;;;;;;1.95;1.65;;;11.50;99.90;;;;;;4919729;28;20031;-87
2022/11/16 03:40:00;;;;;;;2.00;1.30;;;11.50;99.90;;;;;;4952606;28;20077;-86
2022/11/16 03:42:26;;;;;;;1.40;1.25;;;11.40;99.90;;;;;;4953521;28;20921;-86
2022/11/16 03:44:51;;;;;;;1.48;1.38;;;11.40;99.90;;;;;;4968012;28;20031;-86
2022/11/16 03:47:17;;;;;;;2.05;1.20;;;11.50;99.90;;;;;;4930240;28;20046;-86
2022/11/16 03:49:46;;;;;;;1.40;1.20;;;11.50;99.90;;;;;;4937308;28;20023;-86
2022/11/16 03:52:18;;;;;;;2.65;1.20;;;11.40;99.90;;;;;;4930985;28;20121;-86
2022/11/16 03:54:46;;;;;;;1.20;1.10;;;11.40;99.90;;;;;;4960577;28;20035;-86
2022/11/16 03:57:14;;;;;;;1.45;1.30;;;11.40;99.90;;;;;;4955432;28;20031;-86
2022/11/16 03:59:42;;;;;;;1.65;1.33;;;11.40;99.90;;;;;;4935880;28;20034;-85
2022/11/16 04:02:07;;;;;;;1.75;1.20;;;11.30;99.90;;;;;;4951775;28;20038;-86
2022/11/16 04:29:10;;;;;;;3.03;1.00;;;11.40;99.90;;;;;;4978533;28;20033;-86
2022/11/16 04:39:48;;;;;;;1.23;1.08;;;11.30;99.90;;;;;;4948194;28;20160;-86
2022/11/16 04:42:16;;;;;;;1.30;1.17;;;11.30;99.90;;;;;;4933505;28;20027;-86
2022/11/16 04:47:27;;;;;;;1.42;1.13;;;11.20;99.90;;;;;;4930596;28;20057;-85
2022/11/16 04:49:53;;;;;;;2.53;1.23;;;11.20;99.90;;;;;;4968498;28;20498;-86
2022/11/16 04:52:18;;;;;;;1.33;1.02;;;11.20;99.90;;;;;;4950528;28;20061;-86
2022/11/16 04:54:44;;;;;;;1.63;1.20;;;11.30;99.90;;;;;;4949303;28;20403;-84
2022/11/16 04:57:09;;;;;;;2.53;1.52;;;11.20;99.90;;;;;;4938799;28;20396;-84
2022/11/16 04:59:35;;;;;;;1.67;1.23;;;11.20;99.90;;;;;;4952338;28;20037;-85
2022/11/16 05:02:09;;;;;;;2.42;1.30;;;11.20;99.90;;;;;;4952659;28;20050;-85
2022/11/16 05:04:39;;;;;;;1.73;1.33;;;11.20;99.90;;;;;;4933339;28;20185;-85
2022/11/16 05:07:24;;;;;;;1.40;1.17;;;11.20;99.90;;;;;;4953441;28;20527;-85
2022/11/16 05:09:49;;;;;;;1.98;1.45;;;11.20;99.90;;;;;;4945650;28;20398;-85
2022/11/16 05:12:20;;;;;;;4.68;1.80;;;11.20;99.90;;;;;;4935302;28;20035;-85
2022/11/16 05:14:45;;;;;;;2.42;1.70;;;11.20;99.90;;;;;;4924798;28;20487;-85
2022/11/16 05:17:11;;;;;;;2.05;1.52;;;11.20;99.90;;;;;;4932654;28;20033;-85
2022/11/16 05:22:21;;;;;;;1.55;1.25;;;11.20;99.90;;;;;;4958488;28;20175;-84
2022/11/16 05:24:47;;;;;;;1.98;1.50;;;11.20;99.90;;;;;;4975398;28;20086;-84
2022/11/16 05:27:14;;;;;;;2.47;1.50;;;11.20;99.90;;;;;;4950981;28;20031;-85
2022/11/16 05:29:55;;;;;;;2.10;1.45;;;11.20;99.90;;;;;;4977680;28;20034;-84
2022/11/16 05:32:21;;;;;;;2.90;2.00;;;11.10;99.90;;;;;;4959612;28;20111;-84
2022/11/16 05:34:47;;;;;;;2.63;1.45;;;11.10;99.90;;;;;;4963854;28;20109;-83
2022/11/16 05:37:13;;;;;;;1.50;1.40;;;11.00;99.90;;;;;;4982333;28;20336;-84
2022/11/16 05:39:38;;;;;;;2.03;1.13;;;11.20;99.90;;;;;;4963902;28;20070;-84
2022/11/16 05:42:05;;;;;;;2.65;1.23;;;11.20;99.90;;;;;;4966449;28;20085;-84
2022/11/16 05:44:30;;;;;;;2.33;1.70;;;11.10;99.90;;;;;;4930908;28;20027;-85
2022/11/16 05:46:56;;;;;;;1.17;0.90;;;11.20;99.90;;;;;;4965453;28;20054;-84
2022/11/16 05:49:21;;;;;;;4.50;1.60;;;11.10;99.90;;;;;;4941580;28;20034;-84
2022/11/16 05:51:47;;;;;;;1.83;1.30;;;11.10;99.90;;;;;;4938522;28;20030;-84
2022/11/16 05:54:15;;;;;;;3.47;1.35;;;11.10;99.90;;;;;;4955249;28;20045;-83
2022/11/16 05:56:40;;;;;;;1.40;1.15;;;11.10;99.90;;;;;;4941572;28;20031;-84
2022/11/16 05:59:06;;;;;;;2.42;1.20;;;11.10;99.90;;;;;;4929241;28;20027;-83
2022/11/16 06:01:31;;;;;;;4.47;2.20;;;11.20;99.90;;;;;;4934843;28;20023;-84
2022/11/16 06:04:00;;;;;;;1.55;1.20;;;11.10;99.90;;;;;;4959900;28;20097;-84
2022/11/16 06:06:27;;;;;;;3.45;1.50;;;11.10;99.90;;;;;;4954382;28;20116;-84
2022/11/16 06:08:52;;;;;;;3.05;1.20;;;11.10;99.90;;;;;;4978828;28;20055;-84
2022/11/16 06:11:18;;;;;;;1.67;1.23;;;11.10;99.90;;;;;;4953424;28;20646;-85
2022/11/16 06:13:44;;;;;;;2.35;1.10;;;11.10;99.90;;;;;;4952387;28;20470;-85
2022/11/16 06:16:10;;;;;;;5.32;1.70;;;11.20;99.90;;;;;;4955307;28;20054;-85
2022/11/16 06:18:40;;;;;;;1.88;1.73;;;11.20;99.90;;;;;;4955629;28;20504;-85
2022/11/16 06:21:05;;;;;;;2.28;1.02;;;11.20;99.90;;;;;;4939257;28;20038;-85
2022/11/16 06:23:31;;;;;;;1.58;1.48;;;11.20;99.90;;;;;;4969540;28;20049;-84
2022/11/16 06:25:57;;;;;;;2.00;1.52;;;11.10;99.90;;;;;;4965526;28;20027;-86
2022/11/16 06:28:22;;;;;;;2.65;2.15;;;11.20;99.90;;;;;;4945859;28;20074;-85
2022/11/16 06:30:48;;;;;;;1.80;1.60;;;11.20;99.90;;;;;;4970086;28;20039;-84
2022/11/16 06:33:14;;;;;;;4.22;2.85;;;11.20;99.90;;;;;;4932665;28;20422;-84
2022/11/16 06:35:47;;;;;;;5.10;2.63;;;11.20;99.90;;;;;;4968531;28;20046;-84
2022/11/16 06:38:17;;;;;;;4.18;2.90;;;11.20;99.90;;;;;;4954495;28;20046;-84
2022/11/16 06:40:49;;;;;;;6.72;3.33;;;11.20;99.90;;;;;;4953935;28;20131;-83
2022/11/16 06:43:15;;;;;;;5.00;3.22;;;11.10;99.90;;;;;;4937434;28;20495;-84
2022/11/16 06:45:41;;;;;;;4.07;2.95;;;11.10;99.90;;;;;;4954274;28;20059;-84
2022/11/16 06:48:06;;;;;;;2.95;2.25;;;11.10;99.90;;;;;;4983150;28;20038;-84
2022/11/16 06:50:32;;;;;;;3.42;2.53;;;11.10;99.90;;;;;;4953517;28;20491;-84
2022/11/16 06:52:59;;;;;;;3.47;2.40;;;11.10;99.90;;;;;;4934721;28;20050;-84
2022/11/16 06:55:26;;;;;;;7.95;3.83;;;11.10;99.90;;;;;;4950396;28;20065;-84
2022/11/16 06:57:51;;;;;;;3.72;2.65;;;11.10;99.90;;;;;;4966753;28;20035;-84
2022/11/16 07:00:18;;;;;;;5.82;2.67;;;11.20;99.90;;;;;;4968353;28;20126;-84
2022/11/16 07:02:43;;;;;;;4.55;3.22;;;11.20;99.90;;;;;;4935315;28;20050;-84
2022/11/16 07:05:09;;;;;;;4.47;2.63;;;11.10;99.90;;;;;;4966503;28;20027;-84
2022/11/16 07:07:34;;;;;;;5.63;3.55;;;11.10;99.90;;;;;;4937432;28;20023;-84
2022/11/16 07:10:00;;;;;;;4.25;3.00;;;11.10;99.90;;;;;;4940187;28;20043;-83
2022/11/16 07:12:26;;;;;;;4.60;3.30;;;11.10;99.90;;;;;;4926857;28;20371;-84
2022/11/16 07:14:51;;;;;;;8.63;3.42;;;11.00;99.90;;;;;;4966490;28;20039;-84
2022/11/16 07:17:17;;;;;;;5.90;3.35;;;11.00;99.90;;;;;;4932983;28;20051;-84
2022/11/16 07:19:42;;;;;;;4.10;3.05;;;11.00;99.90;;;;;;4951560;28;20034;-84
2022/11/16 07:22:08;;;;;;;4.53;2.75;;;10.90;99.90;;;;;;4958623;28;20027;-84
2022/11/16 07:24:33;;;;;;;8.05;3.05;;;11.00;99.90;;;;;;4977386;28;20031;-84
2022/11/16 07:26:59;;;;;;;6.47;3.40;;;11.00;99.90;;;;;;4967219;28;20043;-84
2022/11/16 07:29:25;;;;;;;6.35;3.08;;;11.10;99.90;;;;;;4951369;28;20490;-84
2022/11/16 07:31:50;;;;;;;5.10;2.42;;;11.00;99.90;;;;;;4932891;28;20064;-84
2022/11/16 07:34:16;;;;;;;6.25;2.47;;;11.10;99.90;;;;;;4934721;28;22000;-84
2022/11/16 07:36:41;;;;;;;4.03;2.22;;;11.10;99.90;;;;;;4930509;28;20031;-83
2022/11/16 07:39:09;;;;;;;8.57;2.25;;;11.10;99.90;;;;;;4968638;28;20279;-84
2022/11/16 07:41:35;;;;;;;3.97;2.25;;;11.20;99.90;;;;;;4948490;28;20383;-84
2022/11/16 07:44:00;;;;;;;3.58;1.73;;;11.10;99.90;;;;;;4934755;28;20031;-83
2022/11/16 07:46:26;;;;;;;4.20;1.70;;;11.10;99.90;;;;;;4963888;28;20374;-84
2022/11/16 07:48:51;;;;;;;2.70;1.27;;;11.20;99.90;;;;;;4932501;28;20585;-83
2022/11/16 07:51:17;;;;;;;5.60;1.65;;;11.20;99.90;;;;;;4976927;28;20039;-84
2022/11/16 07:53:43;;;;;;;3.30;1.58;;;11.10;99.90;;;;;;4977794;28;20041;-83
2022/11/16 07:56:09;;;;;;;6.40;1.75;;;11.30;99.90;;;;;;4960918;28;20029;-84
2022/11/16 07:58:35;;;;;;;5.20;1.60;;;11.20;99.90;;;;;;4956879;28;20482;-83
2022/11/16 08:01:04;;;;;;;3.40;1.15;;;11.20;99.90;;;;;;4962153;28;20050;-85
2022/11/16 08:03:31;;;;;;;5.38;1.50;;;11.20;99.90;;;;;;4937024;28;20056;-84
2022/11/16 08:06:16;;;;;;;7.38;1.50;;;11.20;99.90;;;;;;4989380;28;20049;-83
2022/11/16 08:08:42;;;;;;;2.90;1.20;;;11.20;99.90;;;;;;4937174;28;20506;-84
2022/11/16 08:11:14;;;;;;;6.55;1.63;;;11.20;99.90;;;;;;4946182;28;20046;-84
2022/11/16 08:13:40;;;;;;;7.57;1.80;;;11.20;99.90;;;;;;4953485;28;20035;-84
2022/11/16 08:16:19;;;;;;;3.95;1.83;;;11.20;99.90;;;;;;4934213;28;20510;-83
2022/11/16 08:18:45;;;;;;;6.68;2.15;;;11.20;99.90;;;;;;4952365;28;20031;-84
2022/11/16 08:21:12;;;;;;;6.15;1.52;;;11.20;99.90;;;;;;4949991;28;20034;-84
2022/11/16 08:23:40;;;;;;;4.05;1.60;;;11.20;99.90;;;;;;4963884;28;20032;-85
2022/11/16 08:26:08;;;;;;;3.25;1.30;;;11.10;99.90;;;;;;4963993;28;20034;-85
2022/11/16 08:28:34;;;;;;;5.45;1.88;;;11.10;99.90;;;;;;4951542;28;20050;-88
2022/11/16 08:31:10;;;;;;;5.78;1.73;;;11.20;99.90;;;;;;4981653;28;20030;-86
2022/11/16 08:33:35;;;;;;;4.40;1.60;;;11.30;99.90;;;;;;4927453;28;20027;-86
2022/11/16 08:36:05;;;;;;;5.03;1.80;;;11.40;99.90;;;;;;4929291;28;20029;-86
2022/11/16 08:38:31;;;;;;;5.40;1.50;;;11.30;99.90;;;;;;4956878;28;20027;-86
2022/11/16 08:40:56;;;;;;;5.15;1.42;;;11.40;99.90;;;;;;4982790;28;20385;-86
2022/11/16 08:43:22;;;;;;;2.55;1.17;;;11.50;99.90;;;;;;4953183;28;20032;-86
2022/11/16 08:45:52;;;;;;;4.43;1.80;;;11.60;99.90;;;;;;4932244;28;20031;-86
2022/11/16 08:48:18;;;;;;;7.80;1.73;;;11.50;99.90;;;;;;4922197;28;20039;-86
2022/11/16 08:50:43;;;;;;;7.80;1.98;;;11.50;99.90;;;;;;4942219;28;20510;-86
2022/11/16 08:53:09;;;;;;;4.45;1.45;;;11.50;99.90;;;;;;4961179;28;20379;-86
2022/11/16 08:55:36;;;;;;;7.05;1.70;;;11.50;99.90;;;;;;4947640;28;20797;-86
2022/11/16 08:58:01;;;;;;;5.93;1.80;;;11.60;99.90;;;;;;4941606;28;20038;-86
2022/11/16 09:00:27;;;;;;;6.93;1.63;;;11.70;99.90;;;;;;4945032;28;20449;-86
2022/11/16 09:02:52;;;;;;;5.88;1.70;;;11.80;99.90;;;;;;4955808;28;20043;-84
2022/11/16 09:05:18;;;;;;;3.28;1.15;;;11.90;99.90;;;;;;4962753;28;20070;-86
2022/11/16 09:07:44;;;;;;;9.88;2.10;;;12.20;99.90;;;;;;4982766;28;20054;-86
2022/11/16 09:10:10;;;;;;;6.22;2.05;;;12.10;99.90;;;;;;4956138;28;20117;-86
2022/11/16 09:12:37;;;;;;;5.57;1.50;;;12.20;99.90;;;;;;4959752;28;20055;-86
2022/11/16 09:15:04;;;;;;;8.43;1.60;;;12.20;99.90;;;;;;4994140;28;20049;-85
2022/11/16 09:17:31;;;;;;;6.97;1.98;;;12.40;99.90;;;;;;4939337;28;20027;-86
2022/11/16 09:19:56;;;;;;;6.13;1.75;;;12.40;99.90;;;;;;4947731;28;20035;-86
2022/11/16 09:22:22;;;;;;;9.55;2.60;;;12.50;99.90;;;;;;4959209;28;20030;-86
2022/11/16 09:24:47;;;;;;;5.03;1.60;;;12.70;99.90;;;;;;4974508;28;20046;-86
2022/11/16 09:27:13;;;;;;;4.07;1.35;;;12.80;99.90;;;;;;4940069;28;20091;-85
2022/11/16 09:29:39;;;;;;;6.93;1.23;;;12.80;99.90;;;;;;4967267;28;20039;-85
2022/11/16 09:32:04;;;;;;;3.40;1.15;;;13.00;99.90;;;;;;4949001;28;20079;-86
2022/11/16 09:34:32;;;;;;;4.28;1.33;;;13.10;99.90;;;;;;4927218;28;20051;-85
2022/11/16 09:36:57;;;;;;;5.25;1.90;;;13.10;99.90;;;;;;4943049;28;20386;-86
2022/11/16 09:39:23;;;;;;;6.28;1.50;;;13.30;99.90;;;;;;4955753;28;20045;-85
2022/11/16 09:41:57;;;;;;;5.47;1.65;;;13.40;99.90;;;;;;4961717;28;20051;-86
2022/11/16 09:44:47;;;;;;;5.93;1.20;;;13.40;99.90;;;;;;4957129;28;20031;-86
2022/11/16 09:47:16;;;;;;;3.92;1.20;;;13.50;99.90;;;;;;4973209;28;20231;-86
2022/11/16 09:49:44;;;;;;;4.72;1.25;;;13.50;99.90;;;;;;4961067;28;20035;-85
2022/11/16 09:52:17;;;;;;;3.58;1.20;;;13.50;99.90;;;;;;4978902;28;20112;-86
2022/11/16 09:54:43;;;;;;;7.10;1.20;;;13.50;99.90;;;;;;4956574;28;20062;-85
2022/11/16 09:57:11;;;;;;;6.63;1.15;;;13.50;99.90;;;;;;4952447;28;20510;-85
2022/11/16 09:59:42;;;;;;;6.63;1.02;;;13.40;99.90;;;;;;4971622;28;20032;-86
2022/11/16 10:02:27;;;;;;;7.47;1.15;;;13.50;99.90;;;;;;4953190;28;20035;-86
2022/11/16 10:04:56;;;;;;;8.27;1.38;;;13.50;99.90;;;;;;4973427;28;20031;-86
2022/11/16 10:07:27;;;;;;;5.60;1.60;;;13.50;99.90;;;;;;4975006;28;20178;-85
2022/11/16 10:09:53;;;;;;;4.55;0.90;;;13.30;99.90;;;;;;4958976;28;20035;-86
2022/11/16 10:12:22;;;;;;;3.88;0.90;;;13.40;99.90;;;;;;4957296;28;20065;-86
2022/11/16 10:14:47;;;;;;;7.78;1.65;;;13.50;99.90;;;;;;4972729;28;20058;-86
2022/11/16 10:17:24;;;;;;;2.10;0.80;;;13.40;99.90;;;;;;4970331;28;20031;-86
2022/11/16 10:20:26;;;;;;;7.43;1.10;;;13.50;99.90;;;;;;4957700;28;20039;-86
2022/11/16 10:23:04;;;;;;;5.93;1.20;;;13.60;99.90;;;;;;4904586;28;20491;-85
2022/11/16 10:25:47;;;;;;;6.13;1.23;;;13.70;99.90;;;;;;4961217;28;20027;-86
2022/11/16 10:28:25;;;;;;;6.22;1.17;;;13.80;99.90;;;;;;4975081;28;20035;-86
2022/11/16 10:31:06;;;;;;;9.73;1.50;;;14.00;99.90;;;;;;4951615;28;20125;-85
2022/11/16 10:33:35;;;;;;;9.55;1.42;;;14.00;99.90;;;;;;4933814;28;20118;-87
2022/11/16 10:36:03;;;;;;;5.07;1.20;;;14.20;99.90;;;;;;4934372;28;20372;-85
2022/11/16 10:38:30;;;;;;;8.57;1.20;;;14.20;99.90;;;;;;4932002;28;20030;-85
2022/11/16 10:41:00;;;;;;;7.47;1.45;;;14.20;99.90;;;;;;4991435;28;20027;-85
2022/11/16 10:43:27;;;;;;;7.00;1.10;;;14.10;99.90;;;;;;4949059;28;20027;-85
2022/11/16 10:46:14;;;;;;;7.88;1.40;;;14.00;99.90;;;;;;4981957;28;20039;-86
2022/11/16 10:49:02;;;;;;;6.05;1.10;;;14.10;99.90;;;;;;4946431;28;20031;-86
2022/11/16 10:51:27;;;;;;;4.88;1.13;;;14.30;99.90;;;;;;4950979;28;20114;-87
2022/11/16 10:53:54;;;;;;;3.72;1.10;;;14.50;99.90;;;;;;4951760;28;20118;-87
2022/11/16 10:56:36;;;;;;;4.53;1.30;;;14.50;99.90;;;;;;4953620;28;20509;-88
2022/11/16 10:59:06;;;;;;;8.90;1.02;;;14.50;99.90;;;;;;4952309;28;20098;-87
2022/11/16 11:01:35;;;;;;;4.47;0.80;;;14.70;99.90;;;;;;4953160;28;20039;-88
2022/11/16 11:04:11;;;;;;;4.75;1.02;;;14.90;99.90;;;;;;4964390;28;20530;-87
2022/11/16 11:06:39;;;;;;;3.50;1.38;;;15.10;99.90;;;;;;4960639;28;20034;-87
2022/11/16 11:09:27;;;;;;;4.63;1.25;;;15.40;99.90;;;;;;4973580;28;20058;-87
2022/11/16 11:15:09;;;;;;;2.53;0.70;;;15.40;99.90;;;;;;4986463;28;20046;-86
2022/11/16 11:17:42;;;;;;;10.63;0.93;;;15.40;99.90;;;;;;4941489;28;20113;-88
2022/11/16 11:20:16;;;;;;;4.97;1.05;;;15.70;99.90;;;;;;4945000;28;20042;-87
2022/11/16 11:22:45;;;;;;;7.05;1.02;;;15.70;99.90;;;;;;4963427;28;20035;-88
2022/11/16 11:25:27;;;;;;;5.50;0.80;;;15.80;99.90;;;;;;4973570;28;20038;-88
2022/11/16 11:28:23;;;;;;;1.08;0.52;;;15.60;99.90;;;;;;4967399;28;20494;-87
2022/11/16 11:31:07;;;;;;;7.45;2.33;;;15.60;99.90;;;;;;4967588;28;20487;-87
2022/11/16 11:33:36;;;;;;;5.88;1.65;;;15.60;99.90;;;;;;4965483;28;20034;-87
2022/11/16 11:36:06;;;;;;;3.47;0.73;;;15.80;99.90;;;;;;4989950;28;20069;-84
2022/11/16 11:38:32;;;;;;;5.25;1.00;;;16.20;99.90;;;;;;4968463;28;20054;-84
2022/11/16 11:40:59;;;;;;;8.38;1.15;;;16.20;99.90;;;;;;4977654;28;20065;-84
2022/11/16 11:43:25;;;;;;;3.80;0.90;;;16.10;99.90;;;;;;4980713;28;20038;-84
2022/11/16 11:46:05;;;;;;;4.10;1.08;;;16.30;99.90;;;;;;4944312;28;20053;-83
2022/11/16 11:48:48;;;;;;;8.20;0.80;;;16.50;99.90;;;;;;4960891;28;20041;-84
2022/11/16 11:51:21;;;;;;;3.38;0.90;;;16.50;99.90;;;;;;4946385;28;20042;-84
2022/11/16 11:53:54;;;;;;;3.72;0.82;;;16.20;99.90;;;;;;4955536;28;20042;-84
2022/11/16 11:56:20;;;;;;;3.40;0.82;;;16.50;99.90;;;;;;4957362;28;20045;-84
2022/11/16 11:58:45;;;;;;;6.68;1.65;;;16.20;99.90;;;;;;4938230;28;20183;-84
2022/11/16 12:01:31;;;;;;;7.32;1.10;;;16.40;99.90;;;;;;4944547;28;20089;-84
2022/11/16 12:04:24;;;;;;;7.05;1.23;;;16.70;99.90;;;;;;4985108;28;20035;-85
2022/11/16 12:07:13;;;;;;;4.18;0.82;;;16.80;99.90;;;;;;4975529;28;20031;-83
2022/11/16 12:09:58;;;;;;;2.83;0.98;;;16.90;99.90;;;;;;4947001;28;20041;-85
2022/11/16 12:12:53;;;;;;;5.85;1.20;;;17.00;99.90;;;;;;4972876;28;20032;-84
2022/11/16 12:15:25;;;;;;;4.97;1.00;;;16.90;99.90;;;;;;4944772;28;20030;-84
2022/11/16 12:18:19;;;;;;;4.03;0.70;;;17.20;99.90;;;;;;4975962;28;20035;-84
2022/11/16 12:21:21;;;;;;;5.00;1.20;;;17.30;99.90;;;;;;4946822;28;20035;-85
2022/11/16 12:24:01;;;;;;;9.25;1.50;;;17.00;99.90;;;;;;4900435;28;20053;-84
2022/11/16 12:26:44;;;;;;;6.68;1.10;;;17.10;99.90;;;;;;4969814;28;20035;-84
2022/11/16 12:29:31;;;;;;;4.20;1.33;;;17.30;99.90;;;;;;4962193;28;20055;-85
2022/11/16 12:32:18;;;;;;;4.38;0.80;;;17.00;99.90;;;;;;4958579;28;20042;-85
2022/11/16 12:34:51;;;;;;;8.02;0.95;;;17.10;99.90;;;;;;4957065;28;20035;-85
2022/11/16 12:37:48;;;;;;;2.38;0.80;;;17.10;99.90;;;;;;4951484;28;20077;-84
2022/11/16 12:40:25;;;;;;;5.47;1.10;;;17.40;99.90;;;;;;4943354;28;20031;-84
2022/11/16 12:43:12;;;;;;;4.35;1.92;;;17.60;99.90;;;;;;4965775;28;20113;-85
2022/11/16 12:45:47;;;;;;;4.38;0.40;;;17.30;99.90;;;;;;4947064;28;20039;-85
2022/11/16 12:48:40;;;;;;;3.85;1.08;;;17.30;99.90;;;;;;4964269;28;20101;-85
2022/11/16 12:51:16;;;;;;;5.57;1.10;;;17.30;99.90;;;;;;4943698;28;20031;-85
2022/11/16 12:53:54;;;;;;;2.05;0.60;;;17.50;99.90;;;;;;4929509;28;20038;-85
2022/11/16 12:56:49;;;;;;;4.72;1.00;;;17.40;99.90;;;;;;4941132;28;20510;-85
2022/11/16 12:59:25;;;;;;;5.72;1.08;;;17.30;99.90;;;;;;4957169;28;20034;-85
2022/11/16 13:02:31;;;;;;;5.35;0.77;;;17.50;99.90;;;;;;4967481;28;20066;-84
2022/11/16 13:05:01;;;;;;;4.00;0.90;;;17.50;99.90;;;;;;4931587;28;20030;-85
2022/11/16 13:07:30;;;;;;;4.70;1.00;;;17.30;99.90;;;;;;4931068;28;20058;-84
2022/11/16 13:10:05;;;;;;;4.57;1.05;;;17.30;99.90;;;;;;4965468;28;20047;-85
2022/11/16 13:12:31;;;;;;;4.85;0.82;;;17.30;99.90;;;;;;4950362;28;20032;-84
2022/11/16 13:14:56;;;;;;;6.90;1.40;;;17.30;99.90;;;;;;4930041;28;20058;-85
2022/11/16 13:17:27;;;;;;;6.60;1.70;;;17.30;99.90;;;;;;4932140;28;20035;-85
2022/11/16 13:20:04;;;;;;;5.85;1.23;;;17.30;99.90;;;;;;4965470;28;20042;-85
2022/11/16 13:22:29;;;;;;;5.80;0.85;;;17.30;99.90;;;;;;4944156;28;20038;-85
2022/11/16 13:25:04;;;;;;;7.28;1.08;;;17.50;99.90;;;;;;4964664;28;20762;-86
2022/11/16 13:27:29;;;;;;;1.45;0.63;;;17.20;99.90;;;;;;4961562;28;20389;-85
2022/11/16 13:29:59;;;;;;;6.72;1.50;;;17.40;99.90;;;;;;4948633;28;20051;-85
2022/11/16 13:32:42;;;;;;;3.83;0.88;;;17.30;99.90;;;;;;4948927;28;20063;-85
2022/11/16 13:35:13;;;;;;;2.83;0.68;;;17.40;99.90;;;;;;4936955;28;20577;-85
2022/11/16 13:37:39;;;;;;;2.30;0.77;;;17.40;99.90;;;;;;4939260;28;20035;-85
2022/11/16 13:40:04;;;;;;;4.65;1.13;;;17.20;99.90;;;;;;4966890;28;20436;-85
2022/11/16 13:42:31;;;;;;;3.33;1.00;;;17.40;99.90;;;;;;4969220;28;20031;-85
2022/11/16 13:45:15;;;;;;;4.35;0.55;;;17.30;99.90;;;;;;4938494;28;20039;-84
2022/11/16 13:47:47;;;;;;;7.15;1.05;;;17.40;99.90;;;;;;4967838;28;20035;-84
2022/11/16 13:50:17;;;;;;;4.20;0.82;;;17.40;99.90;;;;;;4938542;28;20092;-85
2022/11/16 13:52:48;;;;;;;3.40;0.95;;;17.40;99.90;;;;;;4968172;28;20046;-85